Date,TemperatureHighF,TemperatureAvgF,TemperatureLowF,DewpointHighF,DewpointAvgF,DewpointLowF,HumidityHigh,HumidityAvg,HumidityLow,PressureMaxIn,PressureMinIn,WindSpeedMaxMPH,WindSpeedAvgMPH,GustSpeedMaxMPH,PrecipitationSumIn
2013-1-1,45.8,42.9,38.6,39.1,28.1,-8.8,78,60,11,30.04,29.88,1,0,4,0.02
2013-1-2,41.9,38.0,35.2,34.3,15.1,-10.6,80,49,12,30.22,29.97,1,0,2,0.00
2013-1-3,38.6,33.0,25.4,25.7,20.4,-0.2,80,60,32,30.25,30.16,1,0,4,0.00
2013-1-4,47.4,34.1,22.4,26.7,15.9,-9.2,79,48,23,30.25,30.13,3,0,5,0.00
2013-1-5,51.1,37.1,25.5,28.7,23.5,19.4,80,60,32,30.38,30.21,1,0,4,0.00
2013-1-6,54.6,42.5,35.1,36.7,30.2,17.8,79,63,42,30.22,30.02,2,0,5,0.00
2013-1-7,49.6,38.8,28.4,31.0,28.2,15.5,80,67,46,30.44,30.14,2,0,7,0.00
2013-1-8,49.5,37.1,26.0,36.5,21.3,-15.7,78,57,13,30.47,30.37,1,0,5,0.00
2013-1-9,66.1,50.0,34.3,52.9,32.6,-10.9,76,55,10,30.40,30.26,2,0,8,0.00
2013-1-10,59.3,46.3,36.4,36.0,16.8,-9.9,78,37,10,30.57,30.37,1,0,4,0.00
2013-1-11,46.2,41.6,33.7,36.9,11.1,-8.7,78,38,11,30.49,30.10,0,0,2,0.00
2013-1-12,53.9,50.0,46.2,2.7,-0.4,-9.3,14,12,7,30.17,30.08,0,0,2,0.00
2013-1-13,69.5,58.9,51.5,56.8,11.2,-9.6,64,19,5,30.12,30.00,2,0,6,0.00
2013-1-14,62.7,56.1,42.7,6.6,-2.9,-8.1,12,9,6,30.25,30.01,2,0,7,0.00
2013-1-15,42.7,40.3,39.1,-4.5,-6.1,-8.8,14,13,11,30.29,30.10,2,0,7,0.00
2013-1-16,44.2,40.0,36.0,-2.2,-5.3,-8.7,16,14,12,30.11,29.91,1,0,4,0.00
2013-1-17,45.4,40.1,31.8,1.1,-4.9,-12.6,16,14,12,30.11,29.98,1,0,4,0.00
2013-1-18,39.2,32.7,27.6,31.2,6.2,-10.6,78,39,15,30.52,30.09,1,0,4,0.00
2013-1-19,53.7,39.1,27.3,32.9,27.1,12.4,79,63,39,30.48,30.07,3,0,8,0.00
2013-1-20,61.4,46.1,34.2,35.7,31.0,27.1,78,58,32,30.07,29.89,3,1,9,0.00
2013-1-21,55.3,40.0,26.0,31.1,17.1,-16.6,77,41,13,30.08,29.79,4,0,8,0.00
2013-1-22,37.9,27.7,21.0,11.0,2.5,-6.1,49,34,21,30.29,29.92,2,0,6,0.00
2013-1-23,34.2,24.2,12.7,12.1,3.7,-3.0,80,44,22,30.36,30.09,2,0,6,0.00
2013-1-24,29.9,24.2,16.8,21.9,10.5,0.7,79,57,31,30.55,30.01,4,1,11,0.00
2013-1-25,24.9,19.1,13.3,15.9,7.5,-13.0,80,62,21,30.54,30.09,1,0,5,0.06
2013-1-26,38.9,26.3,16.4,28.0,7.8,-19.5,79,49,16,30.44,30.08,1,0,4,0.06
2013-1-27,40.2,29.9,22.5,24.6,11.0,-18.9,77,48,14,30.61,30.43,2,0,5,0.00
2013-1-30,71.7,68.9,64.2,61.8,56.8,16.6,74,67,16,29.88,29.28,6,4,15,0.04
2013-1-31,65.5,45.9,30.5,45.4,20.7,-4.8,75,42,7,29.95,29.22,6,2,11,0.42
2013-2-1,37.4,30.5,22.3,25.9,11.0,-0.3,78,46,25,30.40,29.79,4,1,9,0.00
2013-2-2,37.7,25.4,17.2,19.3,10.2,5.6,82,55,30,30.40,30.14,3,0,6,0.00
2013-2-4,40.7,31.7,22.1,19.7,17.6,15.3,80,58,38,30.13,30.01,3,0,7,0.00
2013-2-5,59.4,48.7,39.9,37.1,33.3,28.9,71,56,39,29.92,29.82,2,0,8,0.00
2013-2-6,56.8,43.3,31.2,34.4,29.2,3.9,78,59,30,30.33,29.91,2,0,5,0.00
2013-2-7,36.2,33.3,31.2,29.0,26.8,25.3,80,77,73,30.37,30.33,0,0,1,0.00
2013-2-8,48.3,43.9,38.9,40.5,33.2,24.9,78,66,55,29.94,29.76,2,0,7,0.73
2013-2-9,48.4,37.4,28.0,25.8,20.4,12.7,79,53,25,30.38,29.94,2,0,6,0.00
2013-2-10,50.1,35.7,21.4,28.2,20.0,3.5,81,55,28,30.50,30.24,2,0,5,0.00
2013-2-11,60.6,51.3,39.1,46.9,30.1,-9.4,77,49,9,30.24,29.81,3,1,13,0.04
2013-2-12,61.3,51.4,38.1,46.2,32.0,23.9,79,50,27,30.01,29.82,2,0,6,0.00
2013-2-13,45.9,42.2,37.1,39.1,13.8,-9.5,77,42,11,29.84,29.61,1,0,5,0.08
2013-2-14,52.4,39.5,29.4,38.0,14.2,-13.6,77,42,12,30.04,29.78,3,0,7,0.00
2013-2-15,63.6,45.1,30.8,37.7,22.9,-14.4,77,46,13,30.06,29.89,3,0,9,0.00
2013-2-16,42.2,35.1,29.9,35.5,11.6,-14.3,79,46,12,30.00,29.83,1,0,5,0.17
2013-2-18,48.9,38.5,16.6,24.4,14.6,5.3,80,40,20,30.41,30.22,2,0,7,0.00
2013-2-19,45.9,37.6,33.5,34.2,23.1,-9.8,78,60,10,30.22,29.85,3,0,7,0.05
2013-2-20,46.9,40.3,30.8,20.1,16.4,12.7,54,38,26,30.15,29.97,2,1,8,0.00
2013-2-21,45.6,33.9,23.6,21.2,17.3,14.8,79,52,31,30.31,30.13,2,0,7,0.00
2013-2-22,38.6,34.8,31.7,31.4,23.1,-12.5,79,63,12,30.37,30.19,1,0,5,0.03
2013-2-23,42.1,38.0,34.7,-5.4,-8.6,-12.7,14,13,11,30.19,29.81,1,0,3,0.14
2013-2-24,56.7,44.7,34.8,42.1,17.3,-8.0,74,40,11,30.10,29.80,3,0,7,0.02
2013-2-25,44.7,35.0,27.5,24.9,22.1,19.5,78,60,39,30.23,30.09,1,0,5,0.00
2013-2-26,51.4,39.9,27.9,32.3,9.8,-11.8,78,40,10,30.21,29.54,2,0,8,0.48
2013-2-27,56.5,46.3,42.7,44.3,5.6,-7.7,75,24,11,29.68,29.54,2,0,5,0.01
2013-3-4,49.0,40.4,28.6,22.9,16.3,10.7,71,40,24,30.05,29.95,2,0,7,0.00
2013-3-5,48.2,37.1,26.3,36.2,18.6,-12.2,80,54,12,30.09,29.67,2,0,7,0.43
2013-3-6,37.8,35.0,31.9,31.0,0.3,-13.3,79,28,12,29.98,29.41,4,1,14,1.22
2013-3-7,48.2,38.7,29.9,30.6,26.4,13.6,79,62,45,30.17,29.97,4,1,14,0.28
2013-3-8,49.4,39.3,29.2,29.4,26.7,22.9,80,62,43,30.25,30.13,4,1,12,0.00
2013-3-9,61.0,43.8,29.9,31.1,26.6,21.7,80,55,23,30.33,30.24,2,0,8,0.00
2013-3-10,42.7,31.3,28.1,30.9,18.4,0.4,79,61,26,30.33,30.27,0,0,1,0.00
2013-3-15,60.4,54.1,46.7,36.2,33.3,27.3,63,47,32,29.94,29.82,3,1,8,0.00
2013-3-16,63.6,50.1,44.5,50.3,34.2,-6.8,78,59,11,29.84,29.67,2,0,7,0.08
2013-10-24,50.4,39.8,34.2,37.4,23.4,7.2,77,53,31,30.09,30.05,0,0,2,0.00
2013-10-26,58.6,41.1,28.7,37.7,17.9,-10.4,78,41,16,30.33,29.99,2,0,7,0.00
2013-10-27,65.1,50.3,38.1,44.6,36.6,15.9,80,61,34,30.13,29.99,1,0,5,0.00
2013-10-28,65.4,50.2,37.3,49.3,27.0,-6.0,78,46,14,30.25,30.12,0,0,5,0.00
2013-10-29,69.0,56.6,49.7,51.2,44.4,30.3,78,64,47,30.35,30.24,0,0,2,0.00
2013-10-30,64.6,55.5,48.1,56.9,20.8,1.1,76,31,12,30.31,30.15,0,0,3,0.03
2013-10-31,71.2,61.9,52.3,61.0,35.3,1.2,75,46,12,30.18,29.85,2,0,6,0.00
2013-11-1,70.1,67.8,63.4,61.0,42.5,6.4,74,48,10,29.85,29.63,2,0,10,0.01
2013-11-2,72.7,61.2,51.8,54.6,27.1,3.0,75,34,11,29.90,29.63,1,0,5,0.00
2013-11-3,51.7,44.5,40.1,44.7,34.6,22.0,81,68,49,30.07,29.89,0,0,0,0.00